Portada
METAR-TAF:

METAR-TAF

Aeropuertos :

Germiston, Sudáfrica

latitud: 26-14-33S, longitud: 028-09-04E, altitud: 1671 m

Observación

El informe se hizo hace 19 horas y 42 minutos, a las 13:00 UTC
Viento 11 kt del norte-noreste
Temperatura 17°C
Humedad 55%
Presión 1026 hPa
Visibilidad: 9500 m

METAR: FAGM 151300Z 02011KT 9500 NSC 17/08 Q1026

Hora: 10:42 (08:42 UTC)


TAF: falta

Observaciones y pronósticos meteorológicos de más de 4000 aeropuertos (mensajes METAR y TAF).

Los puntos amarillos y rojos representan las estaciones disponibles.

Ponga el ratón en el punto deseado para ver el nombre de la estación.

Haga clic para ver las observaciones y los pronósticos meteorológicos.

Para cambiar el mapa : haga clic en los botones verdes con una cruz de color negro para hacer un zoom, en el botón verde con un guión para alejar o en las flechas verdes para mapas adyacentes.


METAR-TAF: